Time;durP1;ratioP1;P1;durP2;ratioP2;P2;SDS_P1;SDS_P2;PMS_P1;PMS_P2;Temp;Humidity;BMP_temperature;BMP_pressure;BME280_temperature;BME280_humidity;BME280_pressure;Samples;Min_cycle;Max_cycle;Signal;HPM_P1;HPM_P2
2022/07/10 00:01:56;;;;;;;5.13;2.30;;;;;;;;;;5072801;28;20479;-59
2022/07/10 00:04:22;;;;;;;3.65;2.40;;;;;;;;;;5072516;28;20502;-59
2022/07/10 00:06:48;;;;;;;4.43;2.20;;;;;;;;;;5072315;28;20475;-60
2022/07/10 00:09:15;;;;;;;4.65;2.25;;;;;;;;;;5072412;28;20389;-59
2022/07/10 00:11:41;;;;;;;3.28;2.15;;;;;;;;;;5072000;28;20111;-59
2022/07/10 00:14:07;;;;;;;6.18;2.40;;;;;;;;;;5072274;28;20032;-59
2022/07/10 00:16:34;;;;;;;4.93;2.00;;;;;;;;;;5072771;28;20031;-59
2022/07/10 00:19:01;;;;;;;2.92;1.90;;;;;;;;;;5072331;28;20043;-59
2022/07/10 00:21:27;;;;;;;3.90;2.08;;;;;;;;;;5072132;28;20177;-59
2022/07/10 00:23:53;;;;;;;2.88;2.15;;;;;;;;;;5072714;28;20025;-59
2022/07/10 00:26:19;;;;;;;3.33;2.10;;;;;;;;;;5071885;28;20085;-59
2022/07/10 00:28:45;;;;;;;6.70;2.25;;;;;;;;;;5072289;28;20028;-59
2022/07/10 00:31:11;;;;;;;5.28;2.20;;;;;;;;;;5072648;28;20021;-59
2022/07/10 00:33:38;;;;;;;3.10;2.22;;;;;;;;;;5071983;28;20043;-59
2022/07/10 00:36:05;;;;;;;4.70;1.92;;;;;;;;;;5071702;28;20041;-59
2022/07/10 00:38:31;;;;;;;3.17;2.13;;;;;;;;;;5071991;28;20388;-59
2022/07/10 00:40:57;;;;;;;5.35;2.50;;;;;;;;;;5071523;28;20021;-59
2022/07/10 00:43:23;;;;;;;7.47;2.50;;;;;;;;;;5071980;28;20116;-59
2022/07/10 00:45:50;;;;;;;2.47;1.90;;;;;;;;;;5072139;28;20063;-60
2022/07/10 00:48:16;;;;;;;5.55;2.22;;;;;;;;;;5072031;28;20090;-59
2022/07/10 00:50:45;;;;;;;2.28;1.85;;;;;;;;;;5071920;28;20443;-60
2022/07/10 00:53:13;;;;;;;5.28;2.20;;;;;;;;;;5071906;28;20037;-60
2022/07/10 00:55:39;;;;;;;2.58;1.75;;;;;;;;;;5071965;28;20455;-59
2022/07/10 00:58:09;;;;;;;3.88;2.00;;;;;;;;;;5071960;28;20025;-59
2022/07/10 01:00:39;;;;;;;5.90;2.35;;;;;;;;;;5072203;28;20031;-59
2022/07/10 01:03:05;;;;;;;3.92;2.05;;;;;;;;;;5071778;28;20492;-59
2022/07/10 01:05:32;;;;;;;5.55;2.25;;;;;;;;;;5071602;28;20031;-59
2022/07/10 01:07:58;;;;;;;3.67;2.05;;;;;;;;;;5071806;28;20116;-59
2022/07/10 01:10:24;;;;;;;6.40;2.10;;;;;;;;;;5071893;28;20033;-59
2022/07/10 01:12:50;;;;;;;5.90;1.77;;;;;;;;;;5070369;28;20401;-59
2022/07/10 01:15:16;;;;;;;4.25;1.80;;;;;;;;;;5071841;28;20111;-59
2022/07/10 01:17:43;;;;;;;3.10;1.70;;;;;;;;;;5071702;28;20040;-59
2022/07/10 01:20:09;;;;;;;4.53;1.95;;;;;;;;;;5071497;28;20504;-59
2022/07/10 01:22:39;;;;;;;2.80;1.88;;;;;;;;;;5071333;28;20021;-59
2022/07/10 01:25:06;;;;;;;4.82;1.80;;;;;;;;;;5071793;28;20103;-59
2022/07/10 01:27:32;;;;;;;3.95;2.20;;;;;;;;;;5071400;28;20103;-59
2022/07/10 01:29:58;;;;;;;3.10;2.03;;;;;;;;;;5072248;28;20024;-59
2022/07/10 01:32:24;;;;;;;4.32;2.05;;;;;;;;;;5071506;28;20086;-59
2022/07/10 01:34:50;;;;;;;4.03;2.00;;;;;;;;;;5071593;28;20032;-59
2022/07/10 01:37:16;;;;;;;4.82;2.13;;;;;;;;;;5071290;28;20412;-59
2022/07/10 01:39:43;;;;;;;3.33;2.28;;;;;;;;;;5071365;28;20500;-59
2022/07/10 01:42:09;;;;;;;3.30;2.10;;;;;;;;;;5071105;28;20016;-59
2022/07/10 01:44:35;;;;;;;2.25;1.90;;;;;;;;;;5071812;28;20108;-59
2022/07/10 01:47:01;;;;;;;4.75;2.17;;;;;;;;;;5071402;28;20059;-59
2022/07/10 01:49:27;;;;;;;4.28;2.20;;;;;;;;;;5071514;28;20032;-59
2022/07/10 01:51:54;;;;;;;2.47;2.03;;;;;;;;;;5071797;28;20031;-59
2022/07/10 01:54:20;;;;;;;4.72;2.50;;;;;;;;;;5075235;28;20071;-59
2022/07/10 01:56:46;;;;;;;3.10;2.17;;;;;;;;;;5074976;28;20028;-59
2022/07/10 01:59:12;;;;;;;3.55;2.45;;;;;;;;;;5074912;28;20556;-60
2022/07/10 02:01:38;;;;;;;4.28;2.40;;;;;;;;;;5073540;28;20056;-59
2022/07/10 02:06:49;;;;;;;3.75;2.20;;;;;;;;;;5074722;28;20531;-59
2022/07/10 02:09:15;;;;;;;4.43;2.30;;;;;;;;;;5075257;28;20024;-59
2022/07/10 02:11:41;;;;;;;3.85;2.45;;;;;;;;;;5074495;28;20492;-59
2022/07/10 02:14:08;;;;;;;5.60;2.45;;;;;;;;;;5074532;28;20036;-59
2022/07/10 02:16:35;;;;;;;3.05;2.42;;;;;;;;;;5074515;28;20095;-59
2022/07/10 02:19:01;;;;;;;5.72;2.70;;;;;;;;;;5074425;28;20025;-59
2022/07/10 02:21:27;;;;;;;5.78;2.63;;;;;;;;;;5072879;28;20112;-59
2022/07/10 02:23:53;;;;;;;3.60;2.33;;;;;;;;;;5073596;28;20025;-59
2022/07/10 02:26:19;;;;;;;3.25;2.42;;;;;;;;;;5074288;28;20024;-59
2022/07/10 02:28:45;;;;;;;3.88;2.25;;;;;;;;;;5074474;28;20074;-60
2022/07/10 02:31:11;;;;;;;3.83;2.30;;;;;;;;;;5074622;28;20088;-59
2022/07/10 02:33:37;;;;;;;5.10;2.45;;;;;;;;;;5074221;28;20036;-59
2022/07/10 02:36:04;;;;;;;3.10;2.30;;;;;;;;;;5073693;28;20127;-59
2022/07/10 02:38:30;;;;;;;3.47;2.30;;;;;;;;;;5073909;28;20090;-59
2022/07/10 02:40:56;;;;;;;3.17;2.30;;;;;;;;;;5074191;28;20037;-59
2022/07/10 02:43:22;;;;;;;6.22;2.40;;;;;;;;;;5074452;28;20024;-59
2022/07/10 02:45:48;;;;;;;5.95;2.60;;;;;;;;;;5073964;28;20033;-59
2022/07/10 02:48:16;;;;;;;4.78;2.40;;;;;;;;;;5074000;28;20533;-59
2022/07/10 02:50:42;;;;;;;4.75;2.67;;;;;;;;;;5073553;28;20033;-59
2022/07/10 02:53:08;;;;;;;3.70;2.20;;;;;;;;;;5074272;28;20033;-59
2022/07/10 02:55:34;;;;;;;3.13;2.17;;;;;;;;;;5073698;28;20028;-59
2022/07/10 02:58:00;;;;;;;5.22;2.50;;;;;;;;;;5073861;28;20024;-59
2022/07/10 03:00:27;;;;;;;4.43;2.63;;;;;;;;;;5073646;28;20040;-59
2022/07/10 03:02:53;;;;;;;5.35;2.58;;;;;;;;;;5072262;28;20024;-60
2022/07/10 03:05:19;;;;;;;4.32;2.80;;;;;;;;;;5073372;28;20025;-59
2022/07/10 03:07:45;;;;;;;2.92;2.45;;;;;;;;;;5073984;28;20020;-58
2022/07/10 03:10:11;;;;;;;3.80;2.50;;;;;;;;;;5073471;28;20488;-59
2022/07/10 03:12:38;;;;;;;3.28;2.30;;;;;;;;;;5073821;28;20474;-59
2022/07/10 03:15:05;;;;;;;4.22;2.60;;;;;;;;;;5073208;28;20021;-59
2022/07/10 03:17:31;;;;;;;5.82;2.55;;;;;;;;;;5073474;28;20032;-59
2022/07/10 03:19:57;;;;;;;4.00;2.50;;;;;;;;;;5073113;28;20034;-59
2022/07/10 03:22:23;;;;;;;4.13;2.60;;;;;;;;;;5073294;28;20029;-58
2022/07/10 03:24:49;;;;;;;4.05;2.60;;;;;;;;;;5073276;28;20029;-59
2022/07/10 03:27:16;;;;;;;4.70;3.00;;;;;;;;;;5073520;28;20024;-58
2022/07/10 03:29:42;;;;;;;4.68;2.78;;;;;;;;;;5073013;28;20430;-59
2022/07/10 03:32:09;;;;;;;5.43;2.72;;;;;;;;;;5073043;28;20070;-60
2022/07/10 03:34:35;;;;;;;4.65;2.35;;;;;;;;;;5072792;28;20089;-59
2022/07/10 03:37:01;;;;;;;3.80;2.63;;;;;;;;;;5072510;28;20052;-59
2022/07/10 03:39:27;;;;;;;4.60;2.67;;;;;;;;;;5073295;28;20500;-58
2022/07/10 03:41:53;;;;;;;3.22;2.85;;;;;;;;;;5073250;28;20016;-58
2022/07/10 03:44:19;;;;;;;5.63;2.70;;;;;;;;;;5072648;28;20037;-59
2022/07/10 03:46:45;;;;;;;4.35;2.65;;;;;;;;;;5072804;28;20031;-59
2022/07/10 03:49:11;;;;;;;4.60;2.65;;;;;;;;;;5072300;28;20120;-59
2022/07/10 03:51:38;;;;;;;5.57;2.80;;;;;;;;;;5072873;28;20035;-59
2022/07/10 03:54:04;;;;;;;2.97;2.65;;;;;;;;;;5072735;28;20028;-59
2022/07/10 03:59:22;;;;;;;3.55;2.70;;;;;;;;;;5050399;28;20055;-59
2022/07/10 04:01:48;;;;;;;3.75;3.22;;;;;;;;;;5050551;28;20370;-58
2022/07/10 04:04:14;;;;;;;3.72;3.00;;;;;;;;;;5050182;28;20503;-59
2022/07/10 04:06:40;;;;;;;5.57;3.00;;;;;;;;;;5050313;28;20450;-58
2022/07/10 04:09:07;;;;;;;3.60;2.78;;;;;;;;;;5050251;28;20564;-59
2022/07/10 04:11:33;;;;;;;3.72;2.90;;;;;;;;;;5050261;28;20132;-58
2022/07/10 04:13:59;;;;;;;4.30;2.83;;;;;;;;;;5050078;28;20072;-59
2022/07/10 04:16:25;;;;;;;3.63;3.10;;;;;;;;;;5049559;28;20059;-59
2022/07/10 04:18:51;;;;;;;4.35;3.03;;;;;;;;;;5050164;28;20025;-59
2022/07/10 04:21:17;;;;;;;4.20;2.95;;;;;;;;;;5050186;28;20025;-58
2022/07/10 04:23:43;;;;;;;4.72;2.90;;;;;;;;;;5050100;28;20033;-59
2022/07/10 04:26:09;;;;;;;5.10;3.15;;;;;;;;;;5049936;28;20091;-58
2022/07/10 04:28:35;;;;;;;3.65;3.00;;;;;;;;;;5050280;28;20082;-58
2022/07/10 04:31:01;;;;;;;4.30;3.10;;;;;;;;;;5049658;28;20052;-58
2022/07/10 04:33:27;;;;;;;4.10;3.03;;;;;;;;;;5049859;28;20033;-59
2022/07/10 04:35:53;;;;;;;3.80;2.70;;;;;;;;;;5058442;28;20062;-58
2022/07/10 04:38:19;;;;;;;4.32;2.97;;;;;;;;;;5072323;28;20029;-58
2022/07/10 04:40:45;;;;;;;4.57;3.00;;;;;;;;;;5071975;28;20477;-59
2022/07/10 04:43:11;;;;;;;4.78;3.10;;;;;;;;;;5072047;28;20393;-58
2022/07/10 04:45:37;;;;;;;3.42;2.80;;;;;;;;;;5071744;28;20032;-58
2022/07/10 04:48:07;;;;;;;2.95;2.53;;;;;;;;;;5072077;28;20049;-58
2022/07/10 04:50:33;;;;;;;3.72;2.70;;;;;;;;;;5072029;28;20518;-58
2022/07/10 04:52:59;;;;;;;3.72;2.90;;;;;;;;;;5071717;28;20040;-59
2022/07/10 04:55:28;;;;;;;4.97;3.00;;;;;;;;;;5071879;28;20503;-59
2022/07/10 04:57:54;;;;;;;3.60;2.90;;;;;;;;;;5071835;28;20504;-58
2022/07/10 05:00:20;;;;;;;4.10;2.75;;;;;;;;;;5071534;28;20024;-58
2022/07/10 05:02:46;;;;;;;4.93;2.72;;;;;;;;;;5072311;28;20060;-59
2022/07/10 05:05:12;;;;;;;4.78;2.60;;;;;;;;;;5071900;28;20021;-58
2022/07/10 05:07:38;;;;;;;4.60;2.47;;;;;;;;;;5071903;28;20138;-58
2022/07/10 05:10:04;;;;;;;4.25;2.50;;;;;;;;;;5071879;28;20158;-59
2022/07/10 05:12:31;;;;;;;3.67;2.58;;;;;;;;;;5071588;28;20043;-58
2022/07/10 05:14:58;;;;;;;5.20;2.60;;;;;;;;;;5071383;28;20020;-59
2022/07/10 05:17:24;;;;;;;5.20;2.60;;;;;;;;;;5071663;28;20032;-59
2022/07/10 05:19:51;;;;;;;2.72;2.40;;;;;;;;;;5072235;28;20025;-58
2022/07/10 05:22:17;;;;;;;3.35;2.45;;;;;;;;;;5071683;28;20058;-58
2022/07/10 05:24:43;;;;;;;4.32;2.65;;;;;;;;;;5071615;28;20067;-58
2022/07/10 05:27:09;;;;;;;5.38;2.75;;;;;;;;;;5072673;28;20024;-58
2022/07/10 05:29:35;;;;;;;4.63;2.58;;;;;;;;;;5075157;28;20024;-58
2022/07/10 05:32:01;;;;;;;3.50;2.40;;;;;;;;;;5075351;28;20039;-58
2022/07/10 05:34:27;;;;;;;4.65;2.47;;;;;;;;;;5075507;28;20435;-58
2022/07/10 05:36:53;;;;;;;6.35;2.63;;;;;;;;;;5074883;28;20052;-59
2022/07/10 05:39:20;;;;;;;3.92;2.40;;;;;;;;;;5075414;28;20051;-58
2022/07/10 05:41:46;;;;;;;3.40;2.65;;;;;;;;;;5075199;28;20040;-58
2022/07/10 05:44:12;;;;;;;4.88;2.40;;;;;;;;;;5074825;28;20024;-59
2022/07/10 05:46:39;;;;;;;2.97;2.40;;;;;;;;;;5075125;28;20025;-58
2022/07/10 05:49:05;;;;;;;7.90;2.60;;;;;;;;;;5075455;28;20021;-58
2022/07/10 05:51:31;;;;;;;3.92;2.30;;;;;;;;;;5074885;28;20111;-59
2022/07/10 05:53:57;;;;;;;5.13;2.58;;;;;;;;;;5074911;28;20068;-58
2022/07/10 05:56:23;;;;;;;4.03;2.40;;;;;;;;;;5075356;28;20031;-58
2022/07/10 05:58:49;;;;;;;4.55;2.63;;;;;;;;;;5074593;28;20059;-59
2022/07/10 06:01:15;;;;;;;3.05;2.72;;;;;;;;;;5074972;28;20031;-58
2022/07/10 06:03:41;;;;;;;3.33;2.70;;;;;;;;;;5074717;28;20100;-59
2022/07/10 06:06:08;;;;;;;3.67;3.33;;;;;;;;;;5074704;28;20549;-59
2022/07/10 06:08:34;;;;;;;7.30;3.40;;;;;;;;;;5074930;28;20074;-59
2022/07/10 06:11:00;;;;;;;4.43;3.50;;;;;;;;;;5074922;28;20036;-59
2022/07/10 06:13:26;;;;;;;4.35;3.95;;;;;;;;;;5074246;28;20501;-59
2022/07/10 06:15:52;;;;;;;4.60;4.20;;;;;;;;;;5074499;28;20461;-59
2022/07/10 06:18:18;;;;;;;4.10;3.80;;;;;;;;;;5074645;28;20033;-59
2022/07/10 06:20:44;;;;;;;6.85;4.30;;;;;;;;;;5074759;28;20029;-59
2022/07/10 06:23:10;;;;;;;6.72;6.13;;;;;;;;;;5074492;28;20074;-59
2022/07/10 06:25:36;;;;;;;6.00;5.50;;;;;;;;;;5074489;28;20028;-59
2022/07/10 06:28:03;;;;;;;6.28;5.43;;;;;;;;;;5073993;28;20029;-59
2022/07/10 06:30:29;;;;;;;8.63;8.02;;;;;;;;;;5074415;28;20031;-60
2022/07/10 06:32:55;;;;;;;8.88;8.20;;;;;;;;;;5074306;28;20079;-59
2022/07/10 06:35:21;;;;;;;9.32;8.70;;;;;;;;;;5073991;28;20059;-56
2022/07/10 06:37:47;;;;;;;9.15;8.45;;;;;;;;;;5073658;28;20038;-56
2022/07/10 06:40:16;;;;;;;8.13;7.53;;;;;;;;;;5074091;28;20035;-57
2022/07/10 06:42:42;;;;;;;8.32;7.70;;;;;;;;;;5073732;28;20520;-56
2022/07/10 06:45:09;;;;;;;13.57;12.60;;;;;;;;;;5074161;28;20116;-56
2022/07/10 06:50:21;;;;;;;8.18;7.57;;;;;;;;;;5074003;28;20496;-56
2022/07/10 06:52:47;;;;;;;8.50;8.02;;;;;;;;;;5073646;28;20120;-56
2022/07/10 06:55:13;;;;;;;8.63;7.90;;;;;;;;;;5074083;28;20029;-56
2022/07/10 06:57:39;;;;;;;9.85;9.25;;;;;;;;;;5073568;28;20029;-56
2022/07/10 07:00:06;;;;;;;11.60;10.77;;;;;;;;;;5073872;28;20449;-57
2022/07/10 07:02:32;;;;;;;21.10;19.95;;;;;;;;;;5073747;28;20130;-56
2022/07/10 07:04:58;;;;;;;29.27;27.60;;;;;;;;;;5073949;28;20058;-57
2022/07/10 07:07:24;;;;;;;25.25;23.85;;;;;;;;;;5073637;28;20047;-57
2022/07/10 07:09:50;;;;;;;18.13;16.95;;;;;;;;;;5073600;28;20469;-57
2022/07/10 07:12:17;;;;;;;21.17;20.10;;;;;;;;;;5073245;28;20040;-56
2022/07/10 07:14:43;;;;;;;19.80;18.50;;;;;;;;;;5073390;28;20055;-56
2022/07/10 07:17:11;;;;;;;18.88;17.67;;;;;;;;;;5073913;28;20093;-57
2022/07/10 07:25:08;;;;;;;19.40;18.17;;;;;;;;;;5073536;28;20039;-59
2022/07/10 07:27:35;;;;;;;11.93;11.07;;;;;;;;;;5073269;28;20107;-59
2022/07/10 07:30:04;;;;;;;10.93;10.30;;;;;;;;;;5073457;28;20047;-60
2022/07/10 07:32:30;;;;;;;11.50;10.60;;;;;;;;;;5073086;28;20037;-57
2022/07/10 07:34:56;;;;;;;20.92;19.83;;;;;;;;;;5073241;28;20511;-57
2022/07/10 07:37:23;;;;;;;12.00;11.38;;;;;;;;;;5072809;28;20040;-57
2022/07/10 07:39:50;;;;;;;17.90;16.95;;;;;;;;;;5072638;28;20499;-57
2022/07/10 07:42:16;;;;;;;13.45;12.35;;;;;;;;;;5072894;28;20154;-56
2022/07/10 07:44:42;;;;;;;10.48;9.85;;;;;;;;;;5072924;28;20086;-57
2022/07/10 07:47:08;;;;;;;9.73;9.00;;;;;;;;;;5072840;28;20024;-57
2022/07/10 07:49:34;;;;;;;8.52;7.75;;;;;;;;;;5072463;28;20095;-57
2022/07/10 07:52:00;;;;;;;13.82;13.02;;;;;;;;;;5072642;28;20024;-57
2022/07/10 07:54:26;;;;;;;14.57;13.55;;;;;;;;;;5072410;28;20037;-58
2022/07/10 07:56:52;;;;;;;15.75;14.85;;;;;;;;;;5072536;28;20028;-57
2022/07/10 07:59:18;;;;;;;8.40;7.70;;;;;;;;;;5073181;28;20048;-57
2022/07/10 08:01:44;;;;;;;8.00;7.40;;;;;;;;;;5072644;28;20028;-58
2022/07/10 08:04:11;;;;;;;7.47;6.97;;;;;;;;;;5072441;28;20027;-58
2022/07/10 08:06:37;;;;;;;8.90;8.07;;;;;;;;;;5072426;28;20024;-58
2022/07/10 08:09:03;;;;;;;9.80;9.00;;;;;;;;;;5071209;28;20029;-57
2022/07/10 08:11:29;;;;;;;12.30;11.55;;;;;;;;;;5072486;28;20123;-57
2022/07/10 08:13:55;;;;;;;10.40;9.18;;;;;;;;;;5072414;28;20043;-57
2022/07/10 08:16:21;;;;;;;5.07;4.40;;;;;;;;;;5072233;28;20021;-57
2022/07/10 08:18:47;;;;;;;5.65;4.57;;;;;;;;;;5072781;28;20032;-57
2022/07/10 08:21:13;;;;;;;5.05;4.53;;;;;;;;;;5072250;28;20036;-58
2022/07/10 08:23:39;;;;;;;5.93;4.05;;;;;;;;;;5071871;28;20031;-58
2022/07/10 08:26:05;;;;;;;3.50;3.20;;;;;;;;;;5072567;28;20025;-58
2022/07/10 08:28:31;;;;;;;3.20;2.90;;;;;;;;;;5072278;28;20333;-58
2022/07/10 08:30:57;;;;;;;2.88;2.53;;;;;;;;;;5072243;28;20496;-58
2022/07/10 08:33:24;;;;;;;4.57;3.33;;;;;;;;;;5072546;28;20040;-58
2022/07/10 08:35:50;;;;;;;5.80;2.70;;;;;;;;;;5071889;28;20080;-58
2022/07/10 08:38:16;;;;;;;2.20;2.00;;;;;;;;;;5071651;28;20035;-57
2022/07/10 08:40:43;;;;;;;5.30;2.53;;;;;;;;;;5072045;28;20020;-58
2022/07/10 08:43:09;;;;;;;5.28;2.10;;;;;;;;;;5072331;28;20111;-57
2022/07/10 08:45:35;;;;;;;3.03;2.20;;;;;;;;;;5072144;28;20020;-58
2022/07/10 08:48:05;;;;;;;4.40;2.00;;;;;;;;;;5071824;28;20025;-57
2022/07/10 08:50:33;;;;;;;2.97;1.95;;;;;;;;;;5072066;28;20016;-58
2022/07/10 08:53:09;;;;;;;4.00;2.00;;;;;;;;;;5071477;28;20489;-57
2022/07/10 08:55:35;;;;;;;3.35;1.95;;;;;;;;;;5071932;28;20037;-57
2022/07/10 08:58:04;;;;;;;3.40;2.35;;;;;;;;;;5072278;28;20089;-58
2022/07/10 09:00:30;;;;;;;2.50;2.00;;;;;;;;;;5072127;28;20021;-58
2022/07/10 09:02:56;;;;;;;5.03;2.20;;;;;;;;;;5076056;28;20155;-58
2022/07/10 09:05:25;;;;;;;2.72;2.00;;;;;;;;;;5075786;28;20021;-58
2022/07/10 09:07:53;;;;;;;3.22;2.00;;;;;;;;;;5075654;28;20032;-58
2022/07/10 09:10:20;;;;;;;3.35;2.10;;;;;;;;;;5076161;28;20078;-58
2022/07/10 09:12:50;;;;;;;4.22;2.08;;;;;;;;;;5075760;28;20048;-59
2022/07/10 09:15:21;;;;;;;3.45;1.85;;;;;;;;;;5075788;28;20020;-58
2022/07/10 09:17:54;;;;;;;5.35;2.40;;;;;;;;;;5075684;28;20028;-58
2022/07/10 09:20:31;;;;;;;3.25;1.80;;;;;;;;;;5076033;28;20102;-58
2022/07/10 09:23:10;;;;;;;3.38;2.08;;;;;;;;;;5075602;28;20126;-58
2022/07/10 09:25:36;;;;;;;2.63;1.80;;;;;;;;;;5074260;28;20370;-57
2022/07/10 09:28:05;;;;;;;5.35;1.92;;;;;;;;;;5075573;28;20538;-58
2022/07/10 09:30:41;;;;;;;3.55;2.00;;;;;;;;;;5075787;28;20027;-58
2022/07/10 09:33:30;;;;;;;2.28;1.90;;;;;;;;;;5075178;28;20090;-58
2022/07/10 09:36:05;;;;;;;3.95;1.83;;;;;;;;;;5069408;28;20041;-58
2022/07/10 09:38:44;;;;;;;2.53;1.90;;;;;;;;;;5075174;28;20037;-58
2022/07/10 09:41:17;;;;;;;3.47;1.67;;;;;;;;;;5075307;28;20524;-57
2022/07/10 09:43:47;;;;;;;5.22;1.92;;;;;;;;;;5075274;28;20029;-59
2022/07/10 09:46:13;;;;;;;3.47;1.80;;;;;;;;;;5074991;28;20050;-58
2022/07/10 09:48:40;;;;;;;2.40;1.42;;;;;;;;;;5075612;28;20070;-58
2022/07/10 09:51:10;;;;;;;3.00;1.58;;;;;;;;;;5074768;28;20100;-57
2022/07/10 09:53:41;;;;;;;3.85;1.63;;;;;;;;;;5074930;28;20035;-57
2022/07/10 09:56:08;;;;;;;5.25;1.52;;;;;;;;;;5074959;28;20025;-57
2022/07/10 09:58:35;;;;;;;2.90;1.40;;;;;;;;;;5074740;28;20218;-58
2022/07/10 10:01:03;;;;;;;3.85;1.30;;;;;;;;;;5074899;28;20056;-58
2022/07/10 10:03:32;;;;;;;2.50;1.40;;;;;;;;;;5074749;28;20054;-58
2022/07/10 10:06:17;;;;;;;3.45;1.30;;;;;;;;;;5074381;28;20055;-57
2022/07/10 10:09:02;;;;;;;2.20;1.23;;;;;;;;;;5074853;28;20120;-58
2022/07/10 10:11:29;;;;;;;2.83;1.40;;;;;;;;;;5074707;28;20439;-58
2022/07/10 10:13:55;;;;;;;3.05;1.27;;;;;;;;;;5073935;28;20131;-57
2022/07/10 10:16:22;;;;;;;3.30;1.52;;;;;;;;;;5074361;28;20028;-58
2022/07/10 10:21:35;;;;;;;3.05;1.27;;;;;;;;;;5074746;28;20035;-58
2022/07/10 10:24:02;;;;;;;2.05;1.30;;;;;;;;;;5074560;28;20036;-57
2022/07/10 10:26:28;;;;;;;2.75;1.40;;;;;;;;;;5074609;28;20017;-58
2022/07/10 10:28:58;;;;;;;1.95;1.45;;;;;;;;;;5075010;28;20036;-58
2022/07/10 10:31:25;;;;;;;3.42;1.50;;;;;;;;;;5074256;28;20025;-60
2022/07/10 10:33:55;;;;;;;2.67;1.50;;;;;;;;;;5073914;28;20119;-58
2022/07/10 10:36:36;;;;;;;2.88;1.40;;;;;;;;;;5074163;28;20128;-58
2022/07/10 10:39:18;;;;;;;4.55;1.30;;;;;;;;;;5054325;28;20493;-58
2022/07/10 10:41:54;;;;;;;3.22;1.40;;;;;;;;;;5054198;28;20516;-58
2022/07/10 10:44:21;;;;;;;7.40;3.33;;;;;;;;;;5053944;28;20107;-58
2022/07/10 10:47:09;;;;;;;6.80;2.80;;;;;;;;;;5054103;28;20021;-58
2022/07/10 10:49:49;;;;;;;2.08;1.20;;;;;;;;;;5053780;28;20032;-59
2022/07/10 10:52:16;;;;;;;3.40;1.50;;;;;;;;;;5053818;28;20114;-59
2022/07/10 10:54:57;;;;;;;1.90;1.30;;;;;;;;;;5053924;28;20104;-59
2022/07/10 10:57:24;;;;;;;1.38;1.13;;;;;;;;;;5054216;28;20035;-59
2022/07/10 10:59:51;;;;;;;3.90;1.48;;;;;;;;;;5053827;28;20493;-59
2022/07/10 11:02:27;;;;;;;2.00;1.35;;;;;;;;;;5053389;28;20024;-58
2022/07/10 11:05:22;;;;;;;2.40;1.40;;;;;;;;;;5054027;28;20036;-60
2022/07/10 11:07:55;;;;;;;2.33;1.83;;;;;;;;;;5051501;28;20048;-60
2022/07/10 11:10:35;;;;;;;2.13;1.60;;;;;;;;;;5051408;28;20091;-59
2022/07/10 11:13:11;;;;;;;2.90;1.20;;;;;;;;;;5051527;28;20053;-59
2022/07/10 11:15:42;;;;;;;3.25;1.40;;;;;;;;;;5051097;28;20029;-59
2022/07/10 11:18:14;;;;;;;3.75;1.88;;;;;;;;;;5050833;28;20048;-59
2022/07/10 11:20:49;;;;;;;2.03;1.70;;;;;;;;;;5051352;28;20025;-60
2022/07/10 11:23:27;;;;;;;3.45;2.00;;;;;;;;;;5051514;28;20100;-59
2022/07/10 11:26:01;;;;;;;3.20;1.60;;;;;;;;;;5050443;28;20041;-59
2022/07/10 11:28:47;;;;;;;2.80;1.33;;;;;;;;;;5050945;28;20481;-59
2022/07/10 11:31:14;;;;;;;2.53;1.30;;;;;;;;;;5037904;28;20500;-59
2022/07/10 11:33:45;;;;;;;2.95;1.30;;;;;;;;;;5051023;28;20071;-59
2022/07/10 11:36:13;;;;;;;5.10;1.20;;;;;;;;;;5050658;28;20140;-59
2022/07/10 11:38:40;;;;;;;3.92;1.45;;;;;;;;;;5050681;28;20075;-60
2022/07/10 11:41:12;;;;;;;3.50;1.17;;;;;;;;;;5050864;28;20075;-60
2022/07/10 11:43:46;;;;;;;2.10;1.30;;;;;;;;;;5051014;28;20024;-60
2022/07/10 11:46:13;;;;;;;2.10;1.13;;;;;;;;;;5052564;28;20060;-59
2022/07/10 11:48:40;;;;;;;1.50;1.02;;;;;;;;;;5053352;28;20025;-59
2022/07/10 11:51:16;;;;;;;3.38;1.27;;;;;;;;;;5052888;28;20043;-59
2022/07/10 11:53:52;;;;;;;2.13;1.20;;;;;;;;;;5052621;28;20453;-59
2022/07/10 11:56:19;;;;;;;2.65;1.20;;;;;;;;;;5052694;28;20032;-59
2022/07/10 11:58:53;;;;;;;2.55;1.23;;;;;;;;;;5053061;28;20112;-59
2022/07/10 12:01:19;;;;;;;1.05;1.00;;;;;;;;;;5052372;28;20306;-59
2022/07/10 12:03:45;;;;;;;3.80;1.20;;;;;;;;;;5052683;28;20028;-59
2022/07/10 12:06:11;;;;;;;2.53;1.30;;;;;;;;;;5052520;28;20029;-60
2022/07/10 12:08:47;;;;;;;2.90;1.20;;;;;;;;;;5053006;28;20151;-60
2022/07/10 12:11:18;;;;;;;2.95;1.30;;;;;;;;;;5052405;28;20029;-59
2022/07/10 12:13:48;;;;;;;3.63;1.35;;;;;;;;;;5052433;28;20033;-59
2022/07/10 12:16:14;;;;;;;2.88;1.30;;;;;;;;;;5052283;28;20060;-59
2022/07/10 12:18:41;;;;;;;3.70;1.13;;;;;;;;;;5052259;28;20274;-60
2022/07/10 12:21:09;;;;;;;3.05;1.30;;;;;;;;;;5052351;28;20055;-59
2022/07/10 12:23:38;;;;;;;2.03;1.40;;;;;;;;;;5052331;28;20021;-60
2022/07/10 12:26:04;;;;;;;1.83;0.90;;;;;;;;;;5052105;28;20037;-59
2022/07/10 12:28:31;;;;;;;3.03;1.10;;;;;;;;;;5052207;28;20385;-59
2022/07/10 12:30:57;;;;;;;1.95;1.10;;;;;;;;;;5052197;28;20057;-59
2022/07/10 12:33:23;;;;;;;1.42;1.20;;;;;;;;;;5050791;28;20037;-60
2022/07/10 12:35:49;;;;;;;4.38;1.27;;;;;;;;;;5051960;28;20123;-60
2022/07/10 12:38:26;;;;;;;2.10;1.15;;;;;;;;;;5065517;28;20362;-60
2022/07/10 12:41:06;;;;;;;4.97;1.20;;;;;;;;;;5072523;28;20043;-60
2022/07/10 12:43:32;;;;;;;3.70;1.38;;;;;;;;;;5071973;28;20107;-60
2022/07/10 12:46:10;;;;;;;1.70;1.10;;;;;;;;;;5071805;28;20093;-60
2022/07/10 12:48:37;;;;;;;2.78;1.10;;;;;;;;;;5072115;28;20044;-60
2022/07/10 12:51:22;;;;;;;3.15;1.13;;;;;;;;;;5071973;28;20070;-60
2022/07/10 12:53:48;;;;;;;2.00;1.20;;;;;;;;;;5071938;28;20481;-59
2022/07/10 12:56:30;;;;;;;1.50;1.05;;;;;;;;;;5071982;28;20389;-59
2022/07/10 12:58:57;;;;;;;2.83;1.15;;;;;;;;;;5071649;28;20107;-59
2022/07/10 13:01:23;;;;;;;1.88;1.10;;;;;;;;;;5071981;28;20028;-59
2022/07/10 13:03:57;;;;;;;1.50;1.10;;;;;;;;;;5072200;28;20067;-60
2022/07/10 13:06:33;;;;;;;2.17;1.30;;;;;;;;;;5071805;28;20021;-60
2022/07/10 13:08:59;;;;;;;1.10;1.00;;;;;;;;;;5071883;28;20024;-60
2022/07/10 13:11:27;;;;;;;3.03;1.00;;;;;;;;;;5072057;28;20027;-59
2022/07/10 13:13:53;;;;;;;2.13;1.20;;;;;;;;;;5071445;28;20040;-60
2022/07/10 13:16:19;;;;;;;1.73;1.00;;;;;;;;;;5071718;28;20439;-59
2022/07/10 13:18:46;;;;;;;3.97;1.40;;;;;;;;;;5071896;28;20385;-60
2022/07/10 13:21:12;;;;;;;1.90;1.10;;;;;;;;;;5071686;28;20025;-60
2022/07/10 13:23:39;;;;;;;2.38;0.90;;;;;;;;;;5072070;28;20114;-60
2022/07/10 13:26:09;;;;;;;2.45;1.10;;;;;;;;;;5071706;28;20021;-60
2022/07/10 13:28:35;;;;;;;1.23;0.90;;;;;;;;;;5071450;28;20377;-59
2022/07/10 13:31:02;;;;;;;2.35;1.00;;;;;;;;;;5071965;28;20033;-60
2022/07/10 13:33:28;;;;;;;1.80;1.00;;;;;;;;;;5071548;28;20413;-59
2022/07/10 13:35:57;;;;;;;2.80;1.20;;;;;;;;;;5071376;28;20044;-60
2022/07/10 13:38:25;;;;;;;5.47;1.20;;;;;;;;;;5071452;28;20044;-60
2022/07/10 13:40:51;;;;;;;3.75;1.20;;;;;;;;;;5071423;28;20077;-60
2022/07/10 13:43:17;;;;;;;1.83;1.10;;;;;;;;;;5071681;28;20028;-60
2022/07/10 13:45:43;;;;;;;2.50;1.00;;;;;;;;;;5071384;28;20025;-60
2022/07/10 13:48:09;;;;;;;1.90;1.20;;;;;;;;;;5072707;28;20027;-60
2022/07/10 13:50:38;;;;;;;1.58;1.10;;;;;;;;;;5075343;28;20451;-60
2022/07/10 13:53:04;;;;;;;2.33;1.10;;;;;;;;;;5074890;28;20043;-60
2022/07/10 13:55:30;;;;;;;1.85;1.10;;;;;;;;;;5075423;28;20082;-59
2022/07/10 13:57:56;;;;;;;2.80;1.20;;;;;;;;;;5074701;28;20052;-60
2022/07/10 14:00:22;;;;;;;4.38;1.23;;;;;;;;;;5074956;28;20028;-60
2022/07/10 14:02:48;;;;;;;2.38;1.20;;;;;;;;;;5074754;28;20028;-60
2022/07/10 14:05:14;;;;;;;2.55;1.05;;;;;;;;;;5074855;28;20033;-60
2022/07/10 14:07:40;;;;;;;3.47;1.00;;;;;;;;;;5074649;28;20096;-60
2022/07/10 14:10:07;;;;;;;2.97;1.00;;;;;;;;;;5075154;28;20508;-60
2022/07/10 14:12:33;;;;;;;1.80;1.10;;;;;;;;;;5074338;28;20085;-60
2022/07/10 14:15:00;;;;;;;2.10;1.02;;;;;;;;;;5074732;28;20469;-60
2022/07/10 14:17:26;;;;;;;2.58;1.15;;;;;;;;;;5074621;28;20031;-60
2022/07/10 14:19:52;;;;;;;5.03;1.20;;;;;;;;;;5075142;28;20481;-60
2022/07/10 14:22:18;;;;;;;1.95;1.10;;;;;;;;;;5074490;28;20490;-60
2022/07/10 14:24:44;;;;;;;2.92;1.00;;;;;;;;;;5074407;28;20032;-60
2022/07/10 14:27:10;;;;;;;1.77;1.08;;;;;;;;;;5074617;28;20021;-60
2022/07/10 14:29:37;;;;;;;2.20;1.10;;;;;;;;;;5074376;28;20032;-60
2022/07/10 14:32:03;;;;;;;2.70;1.20;;;;;;;;;;5074247;28;20031;-60
2022/07/10 14:34:29;;;;;;;2.40;1.15;;;;;;;;;;5074322;28;20040;-60
2022/07/10 14:36:56;;;;;;;2.35;1.27;;;;;;;;;;5074231;28;20515;-60
2022/07/10 14:39:22;;;;;;;4.50;1.17;;;;;;;;;;5074254;28;20031;-60
2022/07/10 14:41:48;;;;;;;4.70;1.30;;;;;;;;;;5073776;28;20028;-60
2022/07/10 14:44:14;;;;;;;1.70;1.20;;;;;;;;;;5074257;28;20036;-60
2022/07/10 14:46:42;;;;;;;3.05;1.20;;;;;;;;;;5074573;28;20385;-60
2022/07/10 14:49:08;;;;;;;3.13;1.30;;;;;;;;;;5074273;28;20020;-60
2022/07/10 14:51:35;;;;;;;1.48;1.30;;;;;;;;;;5073909;28;20031;-60
2022/07/10 14:54:01;;;;;;;3.33;1.30;;;;;;;;;;5073813;28;20457;-60
2022/07/10 14:56:27;;;;;;;2.67;1.20;;;;;;;;;;5073695;28;20126;-60
2022/07/10 14:58:53;;;;;;;3.60;1.35;;;;;;;;;;5074088;28;20029;-60
2022/07/10 15:01:19;;;;;;;2.88;1.17;;;;;;;;;;5073970;28;20024;-60